sensor_id;sensor_type;location;lat;lon;timestamp;pressure;altitude;pressure_sealevel;temperature;humidity
78337;BME280;67610;51.588;7.002;2023-04-24T00:01:29;99315.09;;;12.70;61.47
78337;BME280;67610;51.588;7.002;2023-04-24T00:03:55;99308.19;;;12.69;61.69
78337;BME280;67610;51.588;7.002;2023-04-24T00:06:26;99312.47;;;12.77;61.04
78337;BME280;67610;51.588;7.002;2023-04-24T00:08:59;99306.56;;;12.75;60.50
78337;BME280;67610;51.588;7.002;2023-04-24T00:11:26;99308.44;;;12.74;60.35
78337;BME280;67610;51.588;7.002;2023-04-24T00:13:53;99307.19;;;12.77;59.95
78337;BME280;67610;51.588;7.002;2023-04-24T00:16:18;99305.81;;;12.81;59.47
78337;BME280;67610;51.588;7.002;2023-04-24T00:18:44;99304.94;;;12.67;59.93
78337;BME280;67610;51.588;7.002;2023-04-24T00:21:10;99313.28;;;12.71;59.80
78337;BME280;67610;51.588;7.002;2023-04-24T00:23:35;99312.44;;;12.63;60.26
78337;BME280;67610;51.588;7.002;2023-04-24T00:26:01;99309.41;;;12.67;60.40
78337;BME280;67610;51.588;7.002;2023-04-24T00:28:27;99309.78;;;12.63;60.58
78337;BME280;67610;51.588;7.002;2023-04-24T00:30:52;99306.75;;;12.60;60.71
78337;BME280;67610;51.588;7.002;2023-04-24T00:33:19;99311.59;;;12.63;60.95
78337;BME280;67610;51.588;7.002;2023-04-24T00:35:45;99316.72;;;12.65;60.76
78337;BME280;67610;51.588;7.002;2023-04-24T00:38:10;99309.59;;;12.65;60.87
78337;BME280;67610;51.588;7.002;2023-04-24T00:40:36;99306.94;;;12.65;61.16
78337;BME280;67610;51.588;7.002;2023-04-24T00:43:01;99315.28;;;12.69;60.66
78337;BME280;67610;51.588;7.002;2023-04-24T00:45:27;99320.59;;;12.75;60.64
78337;BME280;67610;51.588;7.002;2023-04-24T00:47:53;99321.78;;;12.73;60.56
78337;BME280;67610;51.588;7.002;2023-04-24T00:50:18;99319.78;;;12.81;60.38
78337;BME280;67610;51.588;7.002;2023-04-24T00:52:46;99319.19;;;12.79;59.97
78337;BME280;67610;51.588;7.002;2023-04-24T00:55:13;99317.31;;;12.67;60.35
78337;BME280;67610;51.588;7.002;2023-04-24T00:57:39;99318.94;;;12.68;60.07
78337;BME280;67610;51.588;7.002;2023-04-24T01:00:06;99319.38;;;12.71;59.66
78337;BME280;67610;51.588;7.002;2023-04-24T01:02:36;99327.06;;;12.66;59.71
78337;BME280;67610;51.588;7.002;2023-04-24T01:05:07;99326.66;;;12.63;59.66
78337;BME280;67610;51.588;7.002;2023-04-24T01:07:34;99325.81;;;12.62;59.43
78337;BME280;67610;51.588;7.002;2023-04-24T01:09:59;99324.19;;;12.61;59.06
78337;BME280;67610;51.588;7.002;2023-04-24T01:12:25;99324.19;;;12.61;59.17
78337;BME280;67610;51.588;7.002;2023-04-24T01:14:52;99317.47;;;12.58;59.03
78337;BME280;67610;51.588;7.002;2023-04-24T01:17:17;99320.31;;;12.57;58.90
78337;BME280;67610;51.588;7.002;2023-04-24T01:19:42;99310.13;;;12.47;59.42
78337;BME280;67610;51.588;7.002;2023-04-24T01:22:13;99321.84;;;12.38;59.87
78337;BME280;67610;51.588;7.002;2023-04-24T01:24:39;99317.19;;;12.40;59.69
78337;BME280;67610;51.588;7.002;2023-04-24T01:27:05;99323.28;;;12.41;59.92
78337;BME280;67610;51.588;7.002;2023-04-24T01:29:31;99317.97;;;12.34;59.57
78337;BME280;67610;51.588;7.002;2023-04-24T01:31:57;99319.94;;;12.26;60.27
78337;BME280;67610;51.588;7.002;2023-04-24T01:34:24;99318.34;;;12.25;60.30
78337;BME280;67610;51.588;7.002;2023-04-24T01:36:49;99321.31;;;12.15;60.46
78337;BME280;67610;51.588;7.002;2023-04-24T01:39:15;99322.50;;;12.13;60.66
78337;BME280;67610;51.588;7.002;2023-04-24T01:41:42;99319.47;;;12.09;60.70
78337;BME280;67610;51.588;7.002;2023-04-24T01:44:07;99321.84;;;12.04;60.90
78337;BME280;67610;51.588;7.002;2023-04-24T01:46:33;99321.84;;;12.04;60.83
78337;BME280;67610;51.588;7.002;2023-04-24T01:49:00;99326.69;;;12.01;60.92
78337;BME280;67610;51.588;7.002;2023-04-24T01:51:26;99330.91;;;11.95;61.06
78337;BME280;67610;51.588;7.002;2023-04-24T01:53:52;99326.22;;;11.90;60.97
78337;BME280;67610;51.588;7.002;2023-04-24T01:56:19;99328.81;;;11.84;61.61
78337;BME280;67610;51.588;7.002;2023-04-24T01:58:45;99328.41;;;11.87;61.43
78337;BME280;67610;51.588;7.002;2023-04-24T02:01:17;99331.03;;;11.87;60.99
78337;BME280;67610;51.588;7.002;2023-04-24T02:03:43;99331.81;;;11.81;61.41
78337;BME280;67610;51.588;7.002;2023-04-24T02:06:08;99328.00;;;11.83;61.09
78337;BME280;67610;51.588;7.002;2023-04-24T02:08:34;99341.78;;;11.85;61.13
78337;BME280;67610;51.588;7.002;2023-04-24T02:10:59;99328.38;;;11.80;61.61
78337;BME280;67610;51.588;7.002;2023-04-24T02:13:26;99327.75;;;11.78;61.50
78337;BME280;67610;51.588;7.002;2023-04-24T02:15:52;99340.28;;;11.76;61.66
78337;BME280;67610;51.588;7.002;2023-04-24T02:18:17;99328.13;;;11.75;61.76
78337;BME280;67610;51.588;7.002;2023-04-24T02:20:43;99336.84;;;11.76;61.69
78337;BME280;67610;51.588;7.002;2023-04-24T02:23:08;99338.28;;;11.78;61.69
78337;BME280;67610;51.588;7.002;2023-04-24T02:25:33;99337.09;;;11.81;61.48
78337;BME280;67610;51.588;7.002;2023-04-24T02:27:59;99331.38;;;11.77;61.66
78337;BME280;67610;51.588;7.002;2023-04-24T02:30:24;99334.63;;;11.79;61.84
78337;BME280;67610;51.588;7.002;2023-04-24T02:32:50;99342.16;;;11.82;61.64
78337;BME280;67610;51.588;7.002;2023-04-24T02:35:16;99328.59;;;11.85;61.35
78337;BME280;67610;51.588;7.002;2023-04-24T02:37:41;99319.63;;;11.80;61.58
78337;BME280;67610;51.588;7.002;2023-04-24T02:40:07;99322.44;;;11.72;62.39
78337;BME280;67610;51.588;7.002;2023-04-24T02:42:34;99320.03;;;11.77;61.76
78337;BME280;67610;51.588;7.002;2023-04-24T02:45:00;99318.59;;;11.74;61.91
78337;BME280;67610;51.588;7.002;2023-04-24T02:47:25;99317.97;;;11.72;62.00
78337;BME280;67610;51.588;7.002;2023-04-24T02:49:51;99325.22;;;11.70;61.98
78337;BME280;67610;51.588;7.002;2023-04-24T02:52:16;99329.50;;;11.71;61.93
78337;BME280;67610;51.588;7.002;2023-04-24T02:54:42;99333.97;;;11.71;62.14
78337;BME280;67610;51.588;7.002;2023-04-24T02:57:08;99329.31;;;11.73;61.91
78337;BME280;67610;51.588;7.002;2023-04-24T02:59:33;99322.44;;;11.72;61.92
78337;BME280;67610;51.588;7.002;2023-04-24T03:01:59;99337.22;;;11.73;61.84
78337;BME280;67610;51.588;7.002;2023-04-24T03:04:24;99343.06;;;11.68;62.03
78337;BME280;67610;51.588;7.002;2023-04-24T03:06:51;99344.22;;;11.66;62.06
78337;BME280;67610;51.588;7.002;2023-04-24T03:09:18;99348.84;;;11.64;62.14
78337;BME280;67610;51.588;7.002;2023-04-24T03:11:43;99344.69;;;11.69;62.06
78337;BME280;67610;51.588;7.002;2023-04-24T03:14:09;99345.69;;;11.68;61.83
78337;BME280;67610;51.588;7.002;2023-04-24T03:16:34;99358.56;;;11.63;62.06
78337;BME280;67610;51.588;7.002;2023-04-24T03:19:00;99348.84;;;11.64;62.37
78337;BME280;67610;51.588;7.002;2023-04-24T03:21:25;99355.50;;;11.60;62.50
78337;BME280;67610;51.588;7.002;2023-04-24T03:23:51;99354.06;;;11.57;62.53
78337;BME280;67610;51.588;7.002;2023-04-24T03:26:17;99365.84;;;11.61;62.54
78337;BME280;67610;51.588;7.002;2023-04-24T03:28:42;99359.59;;;11.62;62.60
78337;BME280;67610;51.588;7.002;2023-04-24T03:31:08;99363.84;;;11.63;62.44
78337;BME280;67610;51.588;7.002;2023-04-24T03:33:33;99355.56;;;11.66;62.23
78337;BME280;67610;51.588;7.002;2023-04-24T03:35:58;99360.66;;;11.68;62.24
78337;BME280;67610;51.588;7.002;2023-04-24T03:38:24;99357.56;;;11.64;62.56
78337;BME280;67610;51.588;7.002;2023-04-24T03:40:49;99358.34;;;11.58;62.32
78337;BME280;67610;51.588;7.002;2023-04-24T03:43:14;99355.50;;;11.60;62.60
78337;BME280;67610;51.588;7.002;2023-04-24T03:45:40;99363.84;;;11.63;62.41
78337;BME280;67610;51.588;7.002;2023-04-24T03:48:07;99355.56;;;11.66;62.19
78337;BME280;67610;51.588;7.002;2023-04-24T03:50:32;99357.56;;;11.64;62.14
78337;BME280;67610;51.588;7.002;2023-04-24T03:52:58;99356.59;;;11.65;62.33
78337;BME280;67610;51.588;7.002;2023-04-24T03:55:24;99358.41;;;11.65;62.42
78337;BME280;67610;51.588;7.002;2023-04-24T03:57:50;99365.28;;;11.66;62.47
78337;BME280;67610;51.588;7.002;2023-04-24T04:00:15;99359.97;;;11.59;62.68
78337;BME280;67610;51.588;7.002;2023-04-24T04:02:41;99365.59;;;11.56;62.71
78337;BME280;67610;51.588;7.002;2023-04-24T04:05:06;99352.25;;;11.58;62.86
78337;BME280;67610;51.588;7.002;2023-04-24T04:07:33;99353.50;;;11.62;62.30
78337;BME280;67610;51.588;7.002;2023-04-24T04:09:58;99356.97;;;11.62;62.27
78337;BME280;67610;51.588;7.002;2023-04-24T04:12:24;99353.69;;;11.60;62.51
78337;BME280;67610;51.588;7.002;2023-04-24T04:14:49;99362.78;;;11.58;62.48
78337;BME280;67610;51.588;7.002;2023-04-24T04:17:14;99359.13;;;11.59;62.58
78337;BME280;67610;51.588;7.002;2023-04-24T04:19:40;99361.78;;;11.59;62.50
78337;BME280;67610;51.588;7.002;2023-04-24T04:22:05;99358.19;;;11.66;62.29
78337;BME280;67610;51.588;7.002;2023-04-24T04:24:33;99363.84;;;11.63;62.16
78337;BME280;67610;51.588;7.002;2023-04-24T04:27:03;99363.28;;;11.68;61.93
78337;BME280;67610;51.588;7.002;2023-04-24T04:29:30;99362.84;;;11.64;62.02
78337;BME280;67610;51.588;7.002;2023-04-24T04:31:56;99371.75;;;11.63;62.15
78337;BME280;67610;51.588;7.002;2023-04-24T04:34:22;99371.03;;;11.69;61.71
78337;BME280;67610;51.588;7.002;2023-04-24T04:36:48;99367.13;;;11.65;61.97
78337;BME280;67610;51.588;7.002;2023-04-24T04:39:13;99375.81;;;11.66;61.85
78337;BME280;67610;51.588;7.002;2023-04-24T04:41:44;99375.81;;;11.66;61.85
78337;BME280;67610;51.588;7.002;2023-04-24T04:44:09;99380.66;;;11.62;62.05
78337;BME280;67610;51.588;7.002;2023-04-24T04:46:34;99378.66;;;11.64;61.86
78337;BME280;67610;51.588;7.002;2023-04-24T04:49:02;99377.66;;;11.65;61.90
78337;BME280;67610;51.588;7.002;2023-04-24T04:51:28;99390.09;;;11.71;61.74
78337;BME280;67610;51.588;7.002;2023-04-24T04:53:53;99391.81;;;11.64;61.82
78337;BME280;67610;51.588;7.002;2023-04-24T04:56:19;99390.16;;;11.63;62.03
78337;BME280;67610;51.588;7.002;2023-04-24T04:58:44;99387.25;;;11.73;61.70
78337;BME280;67610;51.588;7.002;2023-04-24T05:01:11;99391.75;;;11.72;61.32
78337;BME280;67610;51.588;7.002;2023-04-24T05:03:36;99385.66;;;11.72;61.84
78337;BME280;67610;51.588;7.002;2023-04-24T05:06:02;99390.09;;;11.71;61.97
78337;BME280;67610;51.588;7.002;2023-04-24T05:08:28;99383.00;;;11.72;61.77
78337;BME280;67610;51.588;7.002;2023-04-24T05:10:54;99386.25;;;11.74;61.77
78337;BME280;67610;51.588;7.002;2023-04-24T05:13:20;99386.84;;;11.69;61.32
78337;BME280;67610;51.588;7.002;2023-04-24T05:15:45;99387.16;;;11.66;61.63
78337;BME280;67610;51.588;7.002;2023-04-24T05:18:11;99382.56;;;11.68;61.79
78337;BME280;67610;51.588;7.002;2023-04-24T05:20:36;99374.09;;;11.73;61.59
78337;BME280;67610;51.588;7.002;2023-04-24T05:23:02;99391.75;;;11.72;61.29
78337;BME280;67610;51.588;7.002;2023-04-24T05:25:27;99391.59;;;11.80;61.01
78337;BME280;67610;51.588;7.002;2023-04-24T05:27:53;99387.56;;;11.84;60.47
78337;BME280;67610;51.588;7.002;2023-04-24T05:30:19;99388.34;;;11.78;60.71
78337;BME280;67610;51.588;7.002;2023-04-24T05:32:45;99396.19;;;11.72;60.98
78337;BME280;67610;51.588;7.002;2023-04-24T05:35:11;99391.91;;;11.71;60.94
78337;BME280;67610;51.588;7.002;2023-04-24T05:37:36;99400.81;;;11.70;61.07
78337;BME280;67610;51.588;7.002;2023-04-24T05:40:02;99403.06;;;11.73;61.02
78337;BME280;67610;51.588;7.002;2023-04-24T05:42:30;99400.69;;;11.78;61.54
78337;BME280;67610;51.588;7.002;2023-04-24T05:44:55;99407.72;;;11.71;62.28
78337;BME280;67610;51.588;7.002;2023-04-24T05:47:21;99404.09;;;11.57;63.03
78337;BME280;67610;51.588;7.002;2023-04-24T05:49:47;99408.28;;;11.52;63.59
78337;BME280;67610;51.588;7.002;2023-04-24T05:52:12;99407.31;;;11.53;63.77
78337;BME280;67610;51.588;7.002;2023-04-24T05:54:38;99409.75;;;11.54;63.62
78337;BME280;67610;51.588;7.002;2023-04-24T05:57:04;99399.47;;;11.59;63.28
78337;BME280;67610;51.588;7.002;2023-04-24T05:59:32;99409.75;;;11.54;63.55
78337;BME280;67610;51.588;7.002;2023-04-24T06:01:58;99407.09;;;11.54;63.44
78337;BME280;67610;51.588;7.002;2023-04-24T06:04:23;99406.47;;;11.52;63.76
78337;BME280;67610;51.588;7.002;2023-04-24T06:06:48;99410.69;;;11.47;63.69
78337;BME280;67610;51.588;7.002;2023-04-24T06:09:16;99403.34;;;11.42;63.94
78337;BME280;67610;51.588;7.002;2023-04-24T06:11:43;99401.72;;;11.41;64.12
78337;BME280;67610;51.588;7.002;2023-04-24T06:14:08;99397.53;;;11.47;63.55
78337;BME280;67610;51.588;7.002;2023-04-24T06:16:33;99410.50;;;11.48;63.72
78337;BME280;67610;51.588;7.002;2023-04-24T06:18:59;99400.16;;;11.47;63.94
78337;BME280;67610;51.588;7.002;2023-04-24T06:21:24;99409.13;;;11.52;63.97
78337;BME280;67610;51.588;7.002;2023-04-24T06:23:50;99402.66;;;11.55;64.28
78337;BME280;67610;51.588;7.002;2023-04-24T06:26:16;99413.09;;;11.63;64.11
78337;BME280;67610;51.588;7.002;2023-04-24T06:28:41;99410.88;;;11.66;64.32
78337;BME280;67610;51.588;7.002;2023-04-24T06:31:07;99414.16;;;11.68;65.06
78337;BME280;67610;51.588;7.002;2023-04-24T06:33:32;99413.50;;;11.66;65.29
78337;BME280;67610;51.588;7.002;2023-04-24T06:35:57;99413.50;;;11.66;65.76
78337;BME280;67610;51.588;7.002;2023-04-24T06:38:23;99407.00;;;11.62;65.93
78337;BME280;67610;51.588;7.002;2023-04-24T06:40:48;99402.72;;;11.61;66.15
78337;BME280;67610;51.588;7.002;2023-04-24T06:43:14;99407.00;;;11.62;66.07
78337;BME280;67610;51.588;7.002;2023-04-24T06:45:40;99404.16;;;11.64;66.27
78337;BME280;67610;51.588;7.002;2023-04-24T06:48:05;99405.59;;;11.66;66.28
78337;BME280;67610;51.588;7.002;2023-04-24T06:50:30;99418.44;;;11.69;66.04
78337;BME280;67610;51.588;7.002;2023-04-24T06:52:56;99405.44;;;11.68;66.11
78337;BME280;67610;51.588;7.002;2023-04-24T06:55:21;99400.00;;;11.69;66.11
78337;BME280;67610;51.588;7.002;2023-04-24T06:57:48;99409.78;;;11.75;66.09
78337;BME280;67610;51.588;7.002;2023-04-24T07:00:14;99402.50;;;11.77;66.73
78337;BME280;67610;51.588;7.002;2023-04-24T07:02:39;99403.38;;;11.84;66.31
78337;BME280;67610;51.588;7.002;2023-04-24T07:05:05;99397.09;;;11.85;66.43
78337;BME280;67610;51.588;7.002;2023-04-24T07:07:30;99403.19;;;11.86;66.30
78337;BME280;67610;51.588;7.002;2023-04-24T07:09:56;99394.47;;;11.85;66.40
78337;BME280;67610;51.588;7.002;2023-04-24T07:12:22;99395.47;;;11.84;66.26
78337;BME280;67610;51.588;7.002;2023-04-24T07:14:48;99397.53;;;11.89;65.87
78337;BME280;67610;51.588;7.002;2023-04-24T07:17:13;99398.31;;;11.83;66.10
78337;BME280;67610;51.588;7.002;2023-04-24T07:19:39;99399.50;;;11.80;66.20
78337;BME280;67610;51.588;7.002;2023-04-24T07:22:05;99401.88;;;11.75;66.21
78337;BME280;67610;51.588;7.002;2023-04-24T07:24:31;99409.53;;;11.70;66.42
78337;BME280;67610;51.588;7.002;2023-04-24T07:26:59;99412.16;;;11.70;66.00
78337;BME280;67610;51.588;7.002;2023-04-24T07:29:26;99417.41;;;11.70;66.01
78337;BME280;67610;51.588;7.002;2023-04-24T07:31:52;99415.59;;;11.71;65.73
78337;BME280;67610;51.588;7.002;2023-04-24T07:34:19;99421.34;;;11.74;65.71
78337;BME280;67610;51.588;7.002;2023-04-24T07:36:45;99420.16;;;11.77;65.75
78337;BME280;67610;51.588;7.002;2023-04-24T07:39:11;99419.69;;;11.73;65.78
78337;BME280;67610;51.588;7.002;2023-04-24T07:41:36;99421.69;;;11.71;65.79
78337;BME280;67610;51.588;7.002;2023-04-24T07:44:01;99423.34;;;11.72;65.66
78337;BME280;67610;51.588;7.002;2023-04-24T07:46:27;99417.41;;;11.70;65.33
78337;BME280;67610;51.588;7.002;2023-04-24T07:48:55;99424.34;;;11.71;65.46
78337;BME280;67610;51.588;7.002;2023-04-24T07:51:20;99425.56;;;11.75;64.96
78337;BME280;67610;51.588;7.002;2023-04-24T07:53:45;99432.28;;;11.78;65.00
78337;BME280;67610;51.588;7.002;2023-04-24T07:56:11;99428.66;;;11.79;63.92
78337;BME280;67610;51.588;7.002;2023-04-24T07:58:37;99436.13;;;11.75;64.21
78337;BME280;67610;51.588;7.002;2023-04-24T08:01:02;99426.34;;;11.69;64.40
78337;BME280;67610;51.588;7.002;2023-04-24T08:03:27;99434.94;;;11.63;64.15
78337;BME280;67610;51.588;7.002;2023-04-24T08:05:54;99438.91;;;11.53;64.27
78337;BME280;67610;51.588;7.002;2023-04-24T08:08:22;99442.97;;;11.55;64.07
78337;BME280;67610;51.588;7.002;2023-04-24T08:10:48;99445.34;;;11.50;64.34
78337;BME280;67610;51.588;7.002;2023-04-24T08:13:13;99455.25;;;11.48;64.84
78337;BME280;67610;51.588;7.002;2023-04-24T08:15:39;99451.72;;;11.41;64.70
78337;BME280;67610;51.588;7.002;2023-04-24T08:18:04;99454.22;;;11.28;65.43
78337;BME280;67610;51.588;7.002;2023-04-24T08:20:30;99451.97;;;11.25;65.56
78337;BME280;67610;51.588;7.002;2023-04-24T08:22:55;99459.59;;;11.20;65.71
78337;BME280;67610;51.588;7.002;2023-04-24T08:25:21;99465.88;;;11.19;66.14
78337;BME280;67610;51.588;7.002;2023-04-24T08:27:48;99480.28;;;11.23;65.85
78337;BME280;67610;51.588;7.002;2023-04-24T08:30:14;99483.38;;;11.12;66.56
78337;BME280;67610;51.588;7.002;2023-04-24T08:32:41;99485.19;;;11.11;66.90
78337;BME280;67610;51.588;7.002;2023-04-24T08:35:07;99484.28;;;11.19;66.91
78337;BME280;67610;51.588;7.002;2023-04-24T08:37:34;99484.84;;;11.14;66.92
78337;BME280;67610;51.588;7.002;2023-04-24T08:39:59;99496.91;;;11.09;67.50
78337;BME280;67610;51.588;7.002;2023-04-24T08:42:26;99494.06;;;11.10;67.58
78337;BME280;67610;51.588;7.002;2023-04-24T08:44:54;99501.41;;;11.15;67.65
78337;BME280;67610;51.588;7.002;2023-04-24T08:47:20;99502.72;;;11.19;67.71
78337;BME280;67610;51.588;7.002;2023-04-24T08:49:47;99491.91;;;11.14;68.21
78337;BME280;67610;51.588;7.002;2023-04-24T08:52:13;99493.16;;;11.18;68.43
78337;BME280;67610;51.588;7.002;2023-04-24T08:54:38;99509.78;;;11.18;68.46
78337;BME280;67610;51.588;7.002;2023-04-24T08:57:06;99514.78;;;11.13;68.95
78337;BME280;67610;51.588;7.002;2023-04-24T08:59:33;99509.69;;;11.12;68.93
78337;BME280;67610;51.588;7.002;2023-04-24T09:02:02;99518.84;;;11.16;69.25
78337;BME280;67610;51.588;7.002;2023-04-24T09:04:28;99522.66;;;11.13;69.44
78337;BME280;67610;51.588;7.002;2023-04-24T09:06:56;99532.75;;;11.10;69.75
78337;BME280;67610;51.588;7.002;2023-04-24T09:09:22;99542.72;;;11.14;69.54
78337;BME280;67610;51.588;7.002;2023-04-24T09:11:49;99549.16;;;11.27;69.43
78337;BME280;67610;51.588;7.002;2023-04-24T09:14:16;99559.50;;;11.28;69.66
78337;BME280;67610;51.588;7.002;2023-04-24T09:16:43;99557.25;;;11.25;70.11
78337;BME280;67610;51.588;7.002;2023-04-24T09:19:09;99563.75;;;11.29;70.15
78337;BME280;67610;51.588;7.002;2023-04-24T09:21:36;99580.84;;;11.33;70.50
78337;BME280;67610;51.588;7.002;2023-04-24T09:24:06;99581.91;;;11.39;70.38
78337;BME280;67610;51.588;7.002;2023-04-24T09:26:35;99588.00;;;11.54;69.37
78337;BME280;67610;51.588;7.002;2023-04-24T09:29:01;99586.44;;;11.59;69.29
78337;BME280;67610;51.588;7.002;2023-04-24T09:31:28;99594.69;;;11.56;69.29
78337;BME280;67610;51.588;7.002;2023-04-24T09:36:36;99601.72;;;11.49;69.12
78337;BME280;67610;51.588;7.002;2023-04-24T09:39:10;99616.63;;;11.42;69.27
78337;BME280;67610;51.588;7.002;2023-04-24T09:41:54;99626.88;;;11.37;68.84
78337;BME280;67610;51.588;7.002;2023-04-24T09:44:25;99641.75;;;11.30;68.85
78337;BME280;67610;51.588;7.002;2023-04-24T09:46:59;99650.00;;;11.27;68.79
78337;BME280;67610;51.588;7.002;2023-04-24T09:49:29;99657.59;;;11.22;69.35
78337;BME280;67610;51.588;7.002;2023-04-24T09:52:06;99677.78;;;11.30;69.25
78337;BME280;67610;51.588;7.002;2023-04-24T09:54:32;99679.97;;;11.26;69.27
78337;BME280;67610;51.588;7.002;2023-04-24T09:56:58;99704.53;;;11.18;69.55
78337;BME280;67610;51.588;7.002;2023-04-24T09:59:25;99705.72;;;11.16;69.11
78337;BME280;67610;51.588;7.002;2023-04-24T10:01:50;99701.44;;;11.15;68.75
78337;BME280;67610;51.588;7.002;2023-04-24T10:06:48;99720.28;;;11.04;69.04
78337;BME280;67610;51.588;7.002;2023-04-24T10:09:24;99732.78;;;11.02;69.39
78337;BME280;67610;51.588;7.002;2023-04-24T10:11:51;99740.69;;;11.02;69.36
78337;BME280;67610;51.588;7.002;2023-04-24T10:14:20;99742.59;;;11.08;69.41
78337;BME280;67610;51.588;7.002;2023-04-24T10:16:46;99741.28;;;11.12;69.25
78337;BME280;67610;51.588;7.002;2023-04-24T10:19:13;99750.03;;;11.04;69.77
78337;BME280;67610;51.588;7.002;2023-04-24T10:21:40;99756.69;;;11.15;69.38
78337;BME280;67610;51.588;7.002;2023-04-24T10:24:16;99761.38;;;11.28;69.31
78337;BME280;67610;51.588;7.002;2023-04-24T10:26:42;99769.66;;;11.39;69.22
78337;BME280;67610;51.588;7.002;2023-04-24T10:29:10;99768.94;;;11.45;69.05
78337;BME280;67610;51.588;7.002;2023-04-24T10:31:41;99779.84;;;11.42;68.88
78337;BME280;67610;51.588;7.002;2023-04-24T10:34:09;99779.13;;;11.48;69.03
78337;BME280;67610;51.588;7.002;2023-04-24T10:36:37;99782.50;;;11.42;69.09
78337;BME280;67610;51.588;7.002;2023-04-24T10:39:08;99784.59;;;11.47;69.36
78337;BME280;67610;51.588;7.002;2023-04-24T10:41:37;99791.66;;;11.46;69.26
78337;BME280;67610;51.588;7.002;2023-04-24T10:44:12;99794.34;;;11.61;68.46
78337;BME280;67610;51.588;7.002;2023-04-24T10:46:42;99797.97;;;11.60;68.75
78337;BME280;67610;51.588;7.002;2023-04-24T10:49:08;99810.19;;;11.53;67.97
78337;BME280;67610;51.588;7.002;2023-04-24T10:51:53;99806.28;;;11.49;68.05
78337;BME280;67610;51.588;7.002;2023-04-24T10:54:33;99813.81;;;11.52;68.17
78337;BME280;67610;51.588;7.002;2023-04-24T10:59:45;99829.47;;;11.53;68.00
78337;BME280;67610;51.588;7.002;2023-04-24T11:02:11;99829.38;;;11.61;67.79
78337;BME280;67610;51.588;7.002;2023-04-24T11:04:39;99831.56;;;11.58;68.08
78337;BME280;67610;51.588;7.002;2023-04-24T11:07:04;99840.97;;;11.52;68.16
78337;BME280;67610;51.588;7.002;2023-04-24T11:09:31;99848.53;;;11.55;68.11
78337;BME280;67610;51.588;7.002;2023-04-24T11:12:08;99844.09;;;11.56;67.98
78337;BME280;67610;51.588;7.002;2023-04-24T11:17:45;99850.44;;;11.61;67.82
78337;BME280;67610;51.588;7.002;2023-04-24T11:20:11;99849.13;;;11.65;68.00
78337;BME280;67610;51.588;7.002;2023-04-24T11:22:38;99862.00;;;11.83;67.83
78337;BME280;67610;51.588;7.002;2023-04-24T11:25:05;99859.13;;;12.07;67.80
78337;BME280;67610;51.588;7.002;2023-04-24T11:27:40;99859.50;;;12.33;67.67
78337;BME280;67610;51.588;7.002;2023-04-24T11:30:08;99860.94;;;12.65;67.11
78337;BME280;67610;51.588;7.002;2023-04-24T11:35:01;99858.91;;;13.11;66.13
78337;BME280;67610;51.588;7.002;2023-04-24T11:37:39;99866.03;;;13.32;64.64
78337;BME280;67610;51.588;7.002;2023-04-24T11:40:07;99870.91;;;13.35;63.76
78337;BME280;67610;51.588;7.002;2023-04-24T11:42:34;99870.44;;;13.24;64.22
78337;BME280;67610;51.588;7.002;2023-04-24T11:45:00;99880.47;;;13.14;63.21
78337;BME280;67610;51.588;7.002;2023-04-24T11:47:30;99877.63;;;13.16;63.41
78337;BME280;67610;51.588;7.002;2023-04-24T11:49:58;99893.16;;;13.25;62.57
78337;BME280;67610;51.588;7.002;2023-04-24T11:52:23;99893.31;;;13.17;61.89
78337;BME280;67610;51.588;7.002;2023-04-24T11:54:50;99900.72;;;13.28;60.60
78337;BME280;67610;51.588;7.002;2023-04-24T11:57:16;99896.69;;;13.32;60.21
78337;BME280;67610;51.588;7.002;2023-04-24T11:59:41;99899.19;;;13.34;60.13
78337;BME280;67610;51.588;7.002;2023-04-24T12:02:07;99909.00;;;13.25;59.45
78337;BME280;67610;51.588;7.002;2023-04-24T12:04:41;99902.63;;;13.35;59.18
78337;BME280;67610;51.588;7.002;2023-04-24T12:07:08;99911.56;;;13.34;58.99
78337;BME280;67610;51.588;7.002;2023-04-24T12:09:44;99921.13;;;13.56;59.17
78337;BME280;67610;51.588;7.002;2023-04-24T12:12:11;99915.59;;;13.72;57.57
78337;BME280;67610;51.588;7.002;2023-04-24T12:14:52;99924.41;;;13.79;58.52
78337;BME280;67610;51.588;7.002;2023-04-24T12:17:31;99927.25;;;13.98;57.90
78337;BME280;67610;51.588;7.002;2023-04-24T12:20:05;99927.34;;;14.12;58.03
78337;BME280;67610;51.588;7.002;2023-04-24T12:22:43;99930.19;;;14.10;55.86
78337;BME280;67610;51.588;7.002;2023-04-24T12:25:12;99948.88;;;14.09;56.05
78337;BME280;67610;51.588;7.002;2023-04-24T12:27:37;99949.84;;;14.01;55.56
78337;BME280;67610;51.588;7.002;2023-04-24T12:30:05;99940.88;;;13.81;54.38
78337;BME280;67610;51.588;7.002;2023-04-24T12:32:31;99958.13;;;13.56;56.52
78337;BME280;67610;51.588;7.002;2023-04-24T12:34:57;99957.34;;;13.41;55.95
78337;BME280;67610;51.588;7.002;2023-04-24T12:37:31;99959.03;;;13.27;56.08
78337;BME280;67610;51.588;7.002;2023-04-24T12:40:08;99965.22;;;13.19;56.12
78337;BME280;67610;51.588;7.002;2023-04-24T12:42:36;99964.94;;;13.14;56.09
78337;BME280;67610;51.588;7.002;2023-04-24T12:45:07;99963.41;;;13.20;55.53
78337;BME280;67610;51.588;7.002;2023-04-24T12:47:33;99969.94;;;13.24;54.62
78337;BME280;67610;51.588;7.002;2023-04-24T12:50:00;99973.50;;;13.31;54.86
78337;BME280;67610;51.588;7.002;2023-04-24T12:52:27;99980.09;;;13.42;55.32
78337;BME280;67610;51.588;7.002;2023-04-24T12:54:55;99974.25;;;13.46;54.81
78337;BME280;67610;51.588;7.002;2023-04-24T12:57:23;99977.66;;;13.40;54.44
78337;BME280;67610;51.588;7.002;2023-04-24T12:59:49;99978.97;;;13.29;54.37
78337;BME280;67610;51.588;7.002;2023-04-24T13:02:15;99983.34;;;13.22;54.28
78337;BME280;67610;51.588;7.002;2023-04-24T13:04:45;99981.63;;;13.15;54.23
78337;BME280;67610;51.588;7.002;2023-04-24T13:07:12;99980.16;;;13.12;54.28
78337;BME280;67610;51.588;7.002;2023-04-24T13:09:39;99994.16;;;12.98;54.60
78337;BME280;67610;51.588;7.002;2023-04-24T13:12:04;99996.25;;;12.88;53.98